sensor_id;sensor_type;location;lat;lon;timestamp;P1;durP1;ratioP1;P2;durP2;ratioP2
25657;SDS011;13517;59.320;18.042;2022-10-31T00:00:56;11.20;;;5.72;;
25657;SDS011;13517;59.320;18.042;2022-10-31T00:03:22;14.77;;;6.22;;
25657;SDS011;13517;59.320;18.042;2022-10-31T00:05:48;13.27;;;6.28;;
25657;SDS011;13517;59.320;18.042;2022-10-31T00:08:14;16.25;;;6.13;;
25657;SDS011;13517;59.320;18.042;2022-10-31T00:10:41;17.60;;;5.88;;
25657;SDS011;13517;59.320;18.042;2022-10-31T00:13:07;13.75;;;6.50;;
25657;SDS011;13517;59.320;18.042;2022-10-31T00:15:37;10.88;;;6.45;;
25657;SDS011;13517;59.320;18.042;2022-10-31T00:18:03;11.82;;;6.22;;
25657;SDS011;13517;59.320;18.042;2022-10-31T00:20:29;13.02;;;6.32;;
25657;SDS011;13517;59.320;18.042;2022-10-31T00:22:59;13.15;;;6.20;;
25657;SDS011;13517;59.320;18.042;2022-10-31T00:25:25;15.35;;;7.00;;
25657;SDS011;13517;59.320;18.042;2022-10-31T00:27:52;11.75;;;6.63;;
25657;SDS011;13517;59.320;18.042;2022-10-31T00:30:17;14.43;;;6.30;;
25657;SDS011;13517;59.320;18.042;2022-10-31T00:32:43;13.48;;;6.25;;
25657;SDS011;13517;59.320;18.042;2022-10-31T00:35:08;11.73;;;6.43;;
25657;SDS011;13517;59.320;18.042;2022-10-31T00:37:34;16.08;;;6.30;;
25657;SDS011;13517;59.320;18.042;2022-10-31T00:39:59;17.48;;;7.43;;
25657;SDS011;13517;59.320;18.042;2022-10-31T00:42:24;13.93;;;6.38;;
25657;SDS011;13517;59.320;18.042;2022-10-31T00:44:50;15.95;;;6.32;;
25657;SDS011;13517;59.320;18.042;2022-10-31T00:47:15;20.98;;;6.70;;
25657;SDS011;13517;59.320;18.042;2022-10-31T00:49:40;15.65;;;6.57;;
25657;SDS011;13517;59.320;18.042;2022-10-31T00:52:06;12.23;;;6.25;;
25657;SDS011;13517;59.320;18.042;2022-10-31T00:54:31;15.40;;;6.43;;
25657;SDS011;13517;59.320;18.042;2022-10-31T00:56:57;11.50;;;6.10;;
25657;SDS011;13517;59.320;18.042;2022-10-31T00:59:23;14.25;;;5.88;;
25657;SDS011;13517;59.320;18.042;2022-10-31T01:01:48;11.40;;;6.47;;
25657;SDS011;13517;59.320;18.042;2022-10-31T01:04:13;13.93;;;6.63;;
25657;SDS011;13517;59.320;18.042;2022-10-31T01:06:39;12.82;;;6.40;;
25657;SDS011;13517;59.320;18.042;2022-10-31T01:09:04;17.30;;;6.57;;
25657;SDS011;13517;59.320;18.042;2022-10-31T01:11:30;14.25;;;6.65;;
25657;SDS011;13517;59.320;18.042;2022-10-31T01:13:55;16.38;;;6.18;;
25657;SDS011;13517;59.320;18.042;2022-10-31T01:16:22;12.63;;;7.00;;
25657;SDS011;13517;59.320;18.042;2022-10-31T01:18:50;12.65;;;6.10;;
25657;SDS011;13517;59.320;18.042;2022-10-31T01:21:18;13.25;;;6.72;;
25657;SDS011;13517;59.320;18.042;2022-10-31T01:23:48;12.75;;;5.93;;
25657;SDS011;13517;59.320;18.042;2022-10-31T01:26:18;12.48;;;5.70;;
25657;SDS011;13517;59.320;18.042;2022-10-31T01:31:15;11.77;;;6.97;;
25657;SDS011;13517;59.320;18.042;2022-10-31T01:33:41;23.50;;;6.93;;
25657;SDS011;13517;59.320;18.042;2022-10-31T01:36:26;13.82;;;7.18;;
25657;SDS011;13517;59.320;18.042;2022-10-31T01:38:55;18.73;;;6.68;;
25657;SDS011;13517;59.320;18.042;2022-10-31T01:41:24;14.65;;;6.30;;
25657;SDS011;13517;59.320;18.042;2022-10-31T01:43:57;15.70;;;6.60;;
25657;SDS011;13517;59.320;18.042;2022-10-31T01:46:31;12.77;;;5.97;;
25657;SDS011;13517;59.320;18.042;2022-10-31T01:49:00;14.18;;;6.05;;
25657;SDS011;13517;59.320;18.042;2022-10-31T01:51:36;16.92;;;5.25;;
25657;SDS011;13517;59.320;18.042;2022-10-31T01:54:07;11.57;;;5.32;;
25657;SDS011;13517;59.320;18.042;2022-10-31T01:56:38;12.50;;;5.70;;
25657;SDS011;13517;59.320;18.042;2022-10-31T01:59:07;11.73;;;6.05;;
25657;SDS011;13517;59.320;18.042;2022-10-31T02:01:35;16.27;;;6.30;;
25657;SDS011;13517;59.320;18.042;2022-10-31T02:04:02;13.93;;;5.85;;
25657;SDS011;13517;59.320;18.042;2022-10-31T02:06:33;16.10;;;6.13;;
25657;SDS011;13517;59.320;18.042;2022-10-31T02:09:03;18.67;;;6.18;;
25657;SDS011;13517;59.320;18.042;2022-10-31T02:11:31;12.82;;;6.20;;
25657;SDS011;13517;59.320;18.042;2022-10-31T02:13:59;14.43;;;6.38;;
25657;SDS011;13517;59.320;18.042;2022-10-31T02:16:26;11.57;;;5.90;;
25657;SDS011;13517;59.320;18.042;2022-10-31T02:18:52;19.70;;;6.20;;
25657;SDS011;13517;59.320;18.042;2022-10-31T02:32:18;13.13;;;5.65;;
25657;SDS011;13517;59.320;18.042;2022-10-31T02:34:59;12.65;;;5.45;;
25657;SDS011;13517;59.320;18.042;2022-10-31T02:45:51;14.30;;;5.47;;
25657;SDS011;13517;59.320;18.042;2022-10-31T02:48:28;15.40;;;6.10;;
25657;SDS011;13517;59.320;18.042;2022-10-31T02:50:57;16.00;;;6.20;;
25657;SDS011;13517;59.320;18.042;2022-10-31T02:53:25;11.50;;;5.90;;
25657;SDS011;13517;59.320;18.042;2022-10-31T02:55:58;16.00;;;6.55;;
25657;SDS011;13517;59.320;18.042;2022-10-31T02:58:29;14.88;;;6.40;;
25657;SDS011;13517;59.320;18.042;2022-10-31T03:06:29;13.85;;;6.05;;
25657;SDS011;13517;59.320;18.042;2022-10-31T03:11:24;15.73;;;6.80;;
25657;SDS011;13517;59.320;18.042;2022-10-31T03:14:00;20.88;;;7.70;;
25657;SDS011;13517;59.320;18.042;2022-10-31T03:16:49;16.45;;;6.35;;
25657;SDS011;13517;59.320;18.042;2022-10-31T03:19:26;19.45;;;6.35;;
25657;SDS011;13517;59.320;18.042;2022-10-31T03:22:15;19.58;;;7.28;;
25657;SDS011;13517;59.320;18.042;2022-10-31T03:24:44;16.33;;;5.82;;
25657;SDS011;13517;59.320;18.042;2022-10-31T03:27:13;20.55;;;7.35;;
25657;SDS011;13517;59.320;18.042;2022-10-31T03:29:43;14.98;;;5.72;;
25657;SDS011;13517;59.320;18.042;2022-10-31T03:32:13;23.65;;;7.03;;
25657;SDS011;13517;59.320;18.042;2022-10-31T03:34:42;15.65;;;6.22;;
25657;SDS011;13517;59.320;18.042;2022-10-31T03:37:10;16.77;;;6.18;;
25657;SDS011;13517;59.320;18.042;2022-10-31T03:39:43;17.20;;;6.57;;
25657;SDS011;13517;59.320;18.042;2022-10-31T03:42:14;14.13;;;6.93;;
25657;SDS011;13517;59.320;18.042;2022-10-31T03:44:42;16.75;;;6.55;;
25657;SDS011;13517;59.320;18.042;2022-10-31T03:47:11;12.93;;;6.35;;
25657;SDS011;13517;59.320;18.042;2022-10-31T03:49:38;14.60;;;6.15;;
25657;SDS011;13517;59.320;18.042;2022-10-31T03:52:13;18.45;;;6.07;;
25657;SDS011;13517;59.320;18.042;2022-10-31T03:54:57;15.95;;;6.32;;
25657;SDS011;13517;59.320;18.042;2022-10-31T04:00:10;16.40;;;6.05;;
25657;SDS011;13517;59.320;18.042;2022-10-31T04:02:39;16.63;;;6.60;;
25657;SDS011;13517;59.320;18.042;2022-10-31T04:05:08;19.52;;;6.35;;
25657;SDS011;13517;59.320;18.042;2022-10-31T04:07:39;20.63;;;5.53;;
25657;SDS011;13517;59.320;18.042;2022-10-31T04:10:10;16.00;;;5.60;;
25657;SDS011;13517;59.320;18.042;2022-10-31T04:12:38;15.15;;;6.15;;
25657;SDS011;13517;59.320;18.042;2022-10-31T04:15:07;17.85;;;6.30;;
25657;SDS011;13517;59.320;18.042;2022-10-31T04:17:34;21.80;;;6.13;;
25657;SDS011;13517;59.320;18.042;2022-10-31T04:20:03;13.98;;;5.72;;
25657;SDS011;13517;59.320;18.042;2022-10-31T04:22:29;19.80;;;6.22;;
25657;SDS011;13517;59.320;18.042;2022-10-31T04:24:54;16.77;;;6.40;;
25657;SDS011;13517;59.320;18.042;2022-10-31T04:27:19;24.17;;;7.20;;
25657;SDS011;13517;59.320;18.042;2022-10-31T04:29:45;26.92;;;6.35;;
25657;SDS011;13517;59.320;18.042;2022-10-31T04:32:10;23.95;;;7.45;;
25657;SDS011;13517;59.320;18.042;2022-10-31T04:34:36;36.13;;;8.05;;
25657;SDS011;13517;59.320;18.042;2022-10-31T04:37:01;28.95;;;6.85;;
25657;SDS011;13517;59.320;18.042;2022-10-31T04:39:26;32.78;;;6.63;;
25657;SDS011;13517;59.320;18.042;2022-10-31T04:41:52;27.25;;;8.88;;
25657;SDS011;13517;59.320;18.042;2022-10-31T04:44:17;34.25;;;8.10;;
25657;SDS011;13517;59.320;18.042;2022-10-31T04:46:42;49.22;;;8.15;;
25657;SDS011;13517;59.320;18.042;2022-10-31T04:49:08;36.33;;;9.35;;
25657;SDS011;13517;59.320;18.042;2022-10-31T04:51:33;33.78;;;9.23;;
25657;SDS011;13517;59.320;18.042;2022-10-31T04:53:59;47.20;;;10.10;;
25657;SDS011;13517;59.320;18.042;2022-10-31T04:56:24;44.92;;;9.60;;
25657;SDS011;13517;59.320;18.042;2022-10-31T04:58:49;52.10;;;11.85;;
25657;SDS011;13517;59.320;18.042;2022-10-31T05:01:15;59.22;;;11.52;;
25657;SDS011;13517;59.320;18.042;2022-10-31T05:03:40;43.20;;;11.00;;
25657;SDS011;13517;59.320;18.042;2022-10-31T05:06:06;57.13;;;12.38;;
25657;SDS011;13517;59.320;18.042;2022-10-31T05:08:32;64.05;;;12.23;;
25657;SDS011;13517;59.320;18.042;2022-10-31T05:11:01;73.05;;;14.40;;
25657;SDS011;13517;59.320;18.042;2022-10-31T05:13:27;64.10;;;13.00;;
25657;SDS011;13517;59.320;18.042;2022-10-31T05:15:52;63.33;;;13.02;;
25657;SDS011;13517;59.320;18.042;2022-10-31T05:18:18;179.60;;;16.67;;
25657;SDS011;13517;59.320;18.042;2022-10-31T05:20:43;90.20;;;13.70;;
25657;SDS011;13517;59.320;18.042;2022-10-31T05:23:09;482.70;;;28.02;;
25657;SDS011;13517;59.320;18.042;2022-10-31T05:25:34;435.35;;;27.80;;
25657;SDS011;13517;59.320;18.042;2022-10-31T05:28:00;883.00;;;56.42;;
25657;SDS011;13517;59.320;18.042;2022-10-31T05:30:27;498.80;;;29.25;;
25657;SDS011;13517;59.320;18.042;2022-10-31T05:32:54;583.00;;;37.78;;
25657;SDS011;13517;59.320;18.042;2022-10-31T05:35:24;769.28;;;43.17;;
25657;SDS011;13517;59.320;18.042;2022-10-31T05:37:52;288.80;;;21.15;;
25657;SDS011;13517;59.320;18.042;2022-10-31T05:40:17;759.83;;;44.75;;
25657;SDS011;13517;59.320;18.042;2022-10-31T05:42:44;762.90;;;45.08;;
25657;SDS011;13517;59.320;18.042;2022-10-31T05:45:11;854.15;;;49.25;;
25657;SDS011;13517;59.320;18.042;2022-10-31T05:47:40;625.45;;;40.33;;
25657;SDS011;13517;59.320;18.042;2022-10-31T05:50:07;645.63;;;35.08;;
25657;SDS011;13517;59.320;18.042;2022-10-31T05:52:33;245.90;;;21.13;;
25657;SDS011;13517;59.320;18.042;2022-10-31T05:54:58;269.63;;;17.60;;
25657;SDS011;13517;59.320;18.042;2022-10-31T05:57:24;733.58;;;39.97;;
25657;SDS011;13517;59.320;18.042;2022-10-31T05:59:49;334.90;;;19.63;;
25657;SDS011;13517;59.320;18.042;2022-10-31T06:02:18;1015.88;;;58.95;;
25657;SDS011;13517;59.320;18.042;2022-10-31T06:04:44;238.88;;;17.80;;
25657;SDS011;13517;59.320;18.042;2022-10-31T06:07:09;1245.53;;;72.88;;
25657;SDS011;13517;59.320;18.042;2022-10-31T06:09:34;921.50;;;56.13;;
25657;SDS011;13517;59.320;18.042;2022-10-31T06:12:00;478.08;;;27.85;;
25657;SDS011;13517;59.320;18.042;2022-10-31T06:14:25;1094.93;;;67.45;;
25657;SDS011;13517;59.320;18.042;2022-10-31T06:16:51;475.13;;;27.83;;
25657;SDS011;13517;59.320;18.042;2022-10-31T06:19:16;409.35;;;31.27;;
25657;SDS011;13517;59.320;18.042;2022-10-31T06:21:41;339.40;;;21.60;;
25657;SDS011;13517;59.320;18.042;2022-10-31T06:24:07;316.88;;;20.55;;
25657;SDS011;13517;59.320;18.042;2022-10-31T06:26:32;211.93;;;15.98;;
25657;SDS011;13517;59.320;18.042;2022-10-31T06:28:58;552.75;;;34.00;;
25657;SDS011;13517;59.320;18.042;2022-10-31T06:31:23;452.08;;;28.42;;
25657;SDS011;13517;59.320;18.042;2022-10-31T06:33:48;570.28;;;36.08;;
25657;SDS011;13517;59.320;18.042;2022-10-31T06:36:14;184.63;;;19.00;;
25657;SDS011;13517;59.320;18.042;2022-10-31T06:38:39;212.65;;;17.55;;
25657;SDS011;13517;59.320;18.042;2022-10-31T06:41:05;228.20;;;17.70;;
25657;SDS011;13517;59.320;18.042;2022-10-31T06:43:31;459.13;;;27.70;;
25657;SDS011;13517;59.320;18.042;2022-10-31T06:45:57;376.60;;;24.58;;
25657;SDS011;13517;59.320;18.042;2022-10-31T06:48:23;656.65;;;37.88;;
25657;SDS011;13517;59.320;18.042;2022-10-31T06:50:48;119.63;;;13.80;;
25657;SDS011;13517;59.320;18.042;2022-10-31T06:53:14;169.52;;;15.13;;
25657;SDS011;13517;59.320;18.042;2022-10-31T06:55:40;464.70;;;25.58;;
25657;SDS011;13517;59.320;18.042;2022-10-31T06:58:06;442.20;;;29.15;;
25657;SDS011;13517;59.320;18.042;2022-10-31T07:00:33;537.00;;;29.50;;
25657;SDS011;13517;59.320;18.042;2022-10-31T07:02:59;515.90;;;27.42;;
25657;SDS011;13517;59.320;18.042;2022-10-31T07:05:26;108.90;;;11.90;;
25657;SDS011;13517;59.320;18.042;2022-10-31T07:07:57;286.63;;;20.30;;
25657;SDS011;13517;59.320;18.042;2022-10-31T07:10:25;131.15;;;12.18;;
25657;SDS011;13517;59.320;18.042;2022-10-31T07:12:55;304.60;;;20.85;;
25657;SDS011;13517;59.320;18.042;2022-10-31T07:15:22;49.50;;;13.15;;
25657;SDS011;13517;59.320;18.042;2022-10-31T07:17:49;239.75;;;18.60;;
25657;SDS011;13517;59.320;18.042;2022-10-31T07:20:14;169.52;;;15.82;;
25657;SDS011;13517;59.320;18.042;2022-10-31T07:22:40;279.20;;;22.75;;
25657;SDS011;13517;59.320;18.042;2022-10-31T07:25:06;64.70;;;16.95;;
25657;SDS011;13517;59.320;18.042;2022-10-31T07:27:37;123.60;;;20.02;;
25657;SDS011;13517;59.320;18.042;2022-10-31T07:30:04;530.65;;;35.63;;
25657;SDS011;13517;59.320;18.042;2022-10-31T07:32:37;463.88;;;30.00;;
25657;SDS011;13517;59.320;18.042;2022-10-31T07:35:07;94.03;;;15.80;;
25657;SDS011;13517;59.320;18.042;2022-10-31T07:37:34;82.00;;;13.02;;
25657;SDS011;13517;59.320;18.042;2022-10-31T07:39:59;60.28;;;12.55;;
25657;SDS011;13517;59.320;18.042;2022-10-31T07:42:25;85.75;;;13.90;;
25657;SDS011;13517;59.320;18.042;2022-10-31T07:44:50;253.35;;;18.45;;
25657;SDS011;13517;59.320;18.042;2022-10-31T07:47:16;214.32;;;17.88;;
25657;SDS011;13517;59.320;18.042;2022-10-31T07:49:41;158.23;;;16.25;;
25657;SDS011;13517;59.320;18.042;2022-10-31T07:52:06;198.63;;;18.92;;
25657;SDS011;13517;59.320;18.042;2022-10-31T07:54:32;87.07;;;14.18;;
25657;SDS011;13517;59.320;18.042;2022-10-31T07:56:57;88.97;;;15.05;;
25657;SDS011;13517;59.320;18.042;2022-10-31T07:59:22;53.45;;;18.00;;
25657;SDS011;13517;59.320;18.042;2022-10-31T08:01:48;99.18;;;36.85;;
25657;SDS011;13517;59.320;18.042;2022-10-31T08:04:13;72.57;;;20.60;;
25657;SDS011;13517;59.320;18.042;2022-10-31T08:06:38;83.18;;;33.55;;
25657;SDS011;13517;59.320;18.042;2022-10-31T08:09:04;54.35;;;15.38;;
25657;SDS011;13517;59.320;18.042;2022-10-31T08:11:29;58.63;;;14.77;;
25657;SDS011;13517;59.320;18.042;2022-10-31T08:13:55;56.08;;;13.77;;
25657;SDS011;13517;59.320;18.042;2022-10-31T08:16:20;56.22;;;13.45;;
25657;SDS011;13517;59.320;18.042;2022-10-31T08:18:45;50.88;;;13.15;;
25657;SDS011;13517;59.320;18.042;2022-10-31T08:21:11;50.63;;;13.38;;
25657;SDS011;13517;59.320;18.042;2022-10-31T08:23:36;50.95;;;13.60;;
25657;SDS011;13517;59.320;18.042;2022-10-31T08:26:01;56.95;;;15.57;;
25657;SDS011;13517;59.320;18.042;2022-10-31T08:28:27;67.40;;;16.25;;
25657;SDS011;13517;59.320;18.042;2022-10-31T08:30:52;55.90;;;16.40;;
25657;SDS011;13517;59.320;18.042;2022-10-31T08:33:18;59.40;;;16.65;;
25657;SDS011;13517;59.320;18.042;2022-10-31T08:35:44;68.35;;;17.75;;
25657;SDS011;13517;59.320;18.042;2022-10-31T08:38:10;68.90;;;17.85;;
25657;SDS011;13517;59.320;18.042;2022-10-31T08:40:37;64.45;;;16.60;;
25657;SDS011;13517;59.320;18.042;2022-10-31T08:43:04;65.10;;;17.05;;
25657;SDS011;13517;59.320;18.042;2022-10-31T08:45:31;55.80;;;16.65;;
25657;SDS011;13517;59.320;18.042;2022-10-31T08:47:58;68.95;;;17.70;;
25657;SDS011;13517;59.320;18.042;2022-10-31T08:50:29;60.42;;;17.52;;
25657;SDS011;13517;59.320;18.042;2022-10-31T08:55:45;58.38;;;16.55;;
25657;SDS011;13517;59.320;18.042;2022-10-31T08:58:12;66.82;;;17.08;;
25657;SDS011;13517;59.320;18.042;2022-10-31T09:00:40;52.35;;;16.20;;
25657;SDS011;13517;59.320;18.042;2022-10-31T09:03:12;53.22;;;15.38;;
25657;SDS011;13517;59.320;18.042;2022-10-31T09:05:39;52.20;;;14.77;;
25657;SDS011;13517;59.320;18.042;2022-10-31T09:08:05;42.05;;;15.82;;
25657;SDS011;13517;59.320;18.042;2022-10-31T09:10:32;55.22;;;16.83;;
25657;SDS011;13517;59.320;18.042;2022-10-31T09:12:59;45.42;;;14.65;;
25657;SDS011;13517;59.320;18.042;2022-10-31T09:15:31;40.70;;;15.10;;
25657;SDS011;13517;59.320;18.042;2022-10-31T09:17:58;38.85;;;14.80;;
25657;SDS011;13517;59.320;18.042;2022-10-31T09:20:23;39.30;;;15.07;;
25657;SDS011;13517;59.320;18.042;2022-10-31T09:22:55;39.92;;;15.23;;
25657;SDS011;13517;59.320;18.042;2022-10-31T09:25:24;44.13;;;16.10;;
25657;SDS011;13517;59.320;18.042;2022-10-31T09:27:50;36.35;;;14.55;;
25657;SDS011;13517;59.320;18.042;2022-10-31T09:30:15;33.95;;;13.80;;
25657;SDS011;13517;59.320;18.042;2022-10-31T09:32:41;38.65;;;12.95;;
25657;SDS011;13517;59.320;18.042;2022-10-31T09:35:06;29.73;;;12.45;;
25657;SDS011;13517;59.320;18.042;2022-10-31T09:37:32;33.15;;;13.23;;
25657;SDS011;13517;59.320;18.042;2022-10-31T09:39:58;32.53;;;13.10;;
25657;SDS011;13517;59.320;18.042;2022-10-31T09:47:33;28.05;;;11.77;;
25657;SDS011;13517;59.320;18.042;2022-10-31T09:50:14;31.60;;;12.50;;
25657;SDS011;13517;59.320;18.042;2022-10-31T09:53:06;34.85;;;11.80;;
25657;SDS011;13517;59.320;18.042;2022-10-31T09:55:38;28.98;;;12.10;;
25657;SDS011;13517;59.320;18.042;2022-10-31T09:58:09;26.60;;;12.80;;
25657;SDS011;13517;59.320;18.042;2022-10-31T10:00:41;28.23;;;12.23;;
25657;SDS011;13517;59.320;18.042;2022-10-31T10:03:25;25.30;;;12.00;;
25657;SDS011;13517;59.320;18.042;2022-10-31T10:06:15;30.00;;;12.63;;
25657;SDS011;13517;59.320;18.042;2022-10-31T10:08:44;31.45;;;13.18;;
25657;SDS011;13517;59.320;18.042;2022-10-31T10:11:25;28.52;;;12.90;;
25657;SDS011;13517;59.320;18.042;2022-10-31T10:14:04;24.10;;;12.23;;
25657;SDS011;13517;59.320;18.042;2022-10-31T10:19:36;29.60;;;14.00;;
25657;SDS011;13517;59.320;18.042;2022-10-31T10:30:50;28.65;;;13.20;;
25657;SDS011;13517;59.320;18.042;2022-10-31T10:33:24;25.23;;;12.65;;
25657;SDS011;13517;59.320;18.042;2022-10-31T10:35:58;23.95;;;12.73;;
25657;SDS011;13517;59.320;18.042;2022-10-31T10:41:14;26.80;;;12.55;;
25657;SDS011;13517;59.320;18.042;2022-10-31T10:43:42;26.33;;;12.27;;
25657;SDS011;13517;59.320;18.042;2022-10-31T10:51:37;30.60;;;13.02;;
25657;SDS011;13517;59.320;18.042;2022-10-31T10:59:36;31.35;;;14.23;;
25657;SDS011;13517;59.320;18.042;2022-10-31T11:02:02;31.15;;;14.45;;
25657;SDS011;13517;59.320;18.042;2022-10-31T11:04:34;29.77;;;13.27;;
25657;SDS011;13517;59.320;18.042;2022-10-31T11:07:08;22.23;;;12.88;;
25657;SDS011;13517;59.320;18.042;2022-10-31T11:09:36;23.50;;;12.75;;
25657;SDS011;13517;59.320;18.042;2022-10-31T11:12:22;30.40;;;13.25;;
25657;SDS011;13517;59.320;18.042;2022-10-31T11:14:55;25.75;;;12.70;;
25657;SDS011;13517;59.320;18.042;2022-10-31T11:17:39;24.92;;;13.00;;
25657;SDS011;13517;59.320;18.042;2022-10-31T11:22:37;22.92;;;12.80;;
25657;SDS011;13517;59.320;18.042;2022-10-31T11:28:05;25.45;;;12.82;;
25657;SDS011;13517;59.320;18.042;2022-10-31T11:30:47;23.58;;;13.10;;
25657;SDS011;13517;59.320;18.042;2022-10-31T11:33:28;28.40;;;12.60;;
25657;SDS011;13517;59.320;18.042;2022-10-31T11:35:58;18.50;;;11.85;;
25657;SDS011;13517;59.320;18.042;2022-10-31T11:38:31;22.85;;;12.07;;
25657;SDS011;13517;59.320;18.042;2022-10-31T11:41:09;19.25;;;11.15;;
25657;SDS011;13517;59.320;18.042;2022-10-31T11:43:35;25.35;;;11.75;;
25657;SDS011;13517;59.320;18.042;2022-10-31T11:46:19;21.50;;;11.52;;
25657;SDS011;13517;59.320;18.042;2022-10-31T11:48:58;20.42;;;11.30;;
25657;SDS011;13517;59.320;18.042;2022-10-31T11:51:28;29.00;;;12.35;;
25657;SDS011;13517;59.320;18.042;2022-10-31T11:53:58;22.17;;;11.10;;
25657;SDS011;13517;59.320;18.042;2022-10-31T11:56:24;19.17;;;10.75;;
25657;SDS011;13517;59.320;18.042;2022-10-31T11:58:59;19.92;;;11.23;;
25657;SDS011;13517;59.320;18.042;2022-10-31T12:01:40;17.25;;;10.27;;
25657;SDS011;13517;59.320;18.042;2022-10-31T12:04:13;16.10;;;9.75;;
25657;SDS011;13517;59.320;18.042;2022-10-31T12:06:39;16.48;;;9.95;;
25657;SDS011;13517;59.320;18.042;2022-10-31T12:09:26;18.98;;;10.40;;
25657;SDS011;13517;59.320;18.042;2022-10-31T12:17:20;18.80;;;10.25;;
25657;SDS011;13517;59.320;18.042;2022-10-31T12:36:28;18.88;;;10.57;;
25657;SDS011;13517;59.320;18.042;2022-10-31T12:42:02;18.65;;;10.25;;
25657;SDS011;13517;59.320;18.042;2022-10-31T12:58:51;18.27;;;8.38;;
25657;SDS011;13517;59.320;18.042;2022-10-31T13:01:26;19.13;;;8.80;;
25657;SDS011;13517;59.320;18.042;2022-10-31T13:04:13;19.63;;;9.23;;
25657;SDS011;13517;59.320;18.042;2022-10-31T13:06:50;15.35;;;8.98;;
25657;SDS011;13517;59.320;18.042;2022-10-31T13:09:22;18.48;;;10.02;;
25657;SDS011;13517;59.320;18.042;2022-10-31T13:12:02;16.88;;;10.07;;
25657;SDS011;13517;59.320;18.042;2022-10-31T13:14:33;22.20;;;9.55;;
25657;SDS011;13517;59.320;18.042;2022-10-31T13:17:04;18.70;;;9.50;;
25657;SDS011;13517;59.320;18.042;2022-10-31T13:19:33;21.95;;;9.35;;
25657;SDS011;13517;59.320;18.042;2022-10-31T13:22:05;18.80;;;9.27;;
25657;SDS011;13517;59.320;18.042;2022-10-31T13:24:46;21.55;;;9.68;;
25657;SDS011;13517;59.320;18.042;2022-10-31T13:30:10;22.73;;;8.98;;
25657;SDS011;13517;59.320;18.042;2022-10-31T13:32:45;25.83;;;9.40;;
25657;SDS011;13517;59.320;18.042;2022-10-31T13:35:16;19.40;;;9.43;;
25657;SDS011;13517;59.320;18.042;2022-10-31T13:47:00;15.52;;;8.70;;
25657;SDS011;13517;59.320;18.042;2022-10-31T13:52:06;20.38;;;9.00;;
25657;SDS011;13517;59.320;18.042;2022-10-31T13:54:40;20.80;;;8.85;;
25657;SDS011;13517;59.320;18.042;2022-10-31T13:57:22;19.58;;;8.98;;
25657;SDS011;13517;59.320;18.042;2022-10-31T14:00:12;22.58;;;8.68;;
25657;SDS011;13517;59.320;18.042;2022-10-31T14:02:47;15.88;;;7.60;;
25657;SDS011;13517;59.320;18.042;2022-10-31T14:08:00;17.20;;;7.65;;
25657;SDS011;13517;59.320;18.042;2022-10-31T14:10:29;15.10;;;8.23;;
25657;SDS011;13517;59.320;18.042;2022-10-31T14:13:08;13.70;;;8.65;;
25657;SDS011;13517;59.320;18.042;2022-10-31T14:15:42;19.95;;;8.38;;
25657;SDS011;13517;59.320;18.042;2022-10-31T14:21:37;19.15;;;8.15;;
25657;SDS011;13517;59.320;18.042;2022-10-31T14:29:20;23.00;;;9.15;;
25657;SDS011;13517;59.320;18.042;2022-10-31T14:31:53;22.48;;;9.00;;
25657;SDS011;13517;59.320;18.042;2022-10-31T14:50:53;13.48;;;8.23;;
25657;SDS011;13517;59.320;18.042;2022-10-31T14:53:31;16.42;;;8.20;;
25657;SDS011;13517;59.320;18.042;2022-10-31T14:55:59;18.05;;;8.68;;
25657;SDS011;13517;59.320;18.042;2022-10-31T15:00:59;17.00;;;7.90;;
25657;SDS011;13517;59.320;18.042;2022-10-31T15:03:30;17.45;;;8.32;;
25657;SDS011;13517;59.320;18.042;2022-10-31T15:06:00;18.75;;;8.02;;
25657;SDS011;13517;59.320;18.042;2022-10-31T15:08:40;26.88;;;7.75;;
25657;SDS011;13517;59.320;18.042;2022-10-31T15:13:49;24.08;;;8.77;;
25657;SDS011;13517;59.320;18.042;2022-10-31T15:16:16;20.95;;;8.98;;
25657;SDS011;13517;59.320;18.042;2022-10-31T15:18:49;24.75;;;8.73;;
25657;SDS011;13517;59.320;18.042;2022-10-31T15:21:18;15.77;;;8.45;;
25657;SDS011;13517;59.320;18.042;2022-10-31T15:23:45;18.67;;;9.43;;
25657;SDS011;13517;59.320;18.042;2022-10-31T15:26:21;15.65;;;8.85;;
25657;SDS011;13517;59.320;18.042;2022-10-31T15:28:59;19.00;;;8.95;;
25657;SDS011;13517;59.320;18.042;2022-10-31T15:31:25;19.60;;;8.88;;
25657;SDS011;13517;59.320;18.042;2022-10-31T15:33:51;23.38;;;9.02;;
25657;SDS011;13517;59.320;18.042;2022-10-31T15:36:23;18.20;;;7.43;;
25657;SDS011;13517;59.320;18.042;2022-10-31T15:38:50;18.05;;;8.23;;
25657;SDS011;13517;59.320;18.042;2022-10-31T15:41:21;17.77;;;8.80;;
25657;SDS011;13517;59.320;18.042;2022-10-31T15:43:52;15.68;;;7.15;;
25657;SDS011;13517;59.320;18.042;2022-10-31T15:46:19;17.30;;;8.20;;
25657;SDS011;13517;59.320;18.042;2022-10-31T15:48:45;16.48;;;7.25;;
25657;SDS011;13517;59.320;18.042;2022-10-31T15:51:12;19.45;;;7.13;;
25657;SDS011;13517;59.320;18.042;2022-10-31T15:53:42;19.35;;;7.90;;
25657;SDS011;13517;59.320;18.042;2022-10-31T15:56:13;24.23;;;7.68;;
25657;SDS011;13517;59.320;18.042;2022-10-31T15:58:49;18.17;;;8.68;;
25657;SDS011;13517;59.320;18.042;2022-10-31T16:01:24;17.92;;;7.97;;
25657;SDS011;13517;59.320;18.042;2022-10-31T16:04:19;18.55;;;8.23;;
25657;SDS011;13517;59.320;18.042;2022-10-31T16:06:55;20.35;;;9.38;;
25657;SDS011;13517;59.320;18.042;2022-10-31T16:09:26;15.35;;;8.55;;
25657;SDS011;13517;59.320;18.042;2022-10-31T16:11:52;20.10;;;9.02;;
25657;SDS011;13517;59.320;18.042;2022-10-31T16:14:25;18.52;;;8.77;;
25657;SDS011;13517;59.320;18.042;2022-10-31T16:16:54;18.83;;;8.63;;
25657;SDS011;13517;59.320;18.042;2022-10-31T16:19:29;17.85;;;8.45;;
25657;SDS011;13517;59.320;18.042;2022-10-31T16:22:10;19.88;;;9.25;;
25657;SDS011;13517;59.320;18.042;2022-10-31T16:27:22;17.27;;;8.50;;
25657;SDS011;13517;59.320;18.042;2022-10-31T16:29:54;19.33;;;8.48;;
25657;SDS011;13517;59.320;18.042;2022-10-31T16:32:27;25.73;;;9.70;;
25657;SDS011;13517;59.320;18.042;2022-10-31T16:37:37;17.55;;;9.02;;
25657;SDS011;13517;59.320;18.042;2022-10-31T16:40:03;21.20;;;9.10;;
25657;SDS011;13517;59.320;18.042;2022-10-31T16:42:29;28.73;;;9.52;;
25657;SDS011;13517;59.320;18.042;2022-10-31T16:44:54;26.30;;;9.13;;
25657;SDS011;13517;59.320;18.042;2022-10-31T16:47:20;25.05;;;9.15;;
25657;SDS011;13517;59.320;18.042;2022-10-31T16:49:46;19.88;;;8.95;;
25657;SDS011;13517;59.320;18.042;2022-10-31T16:52:13;20.40;;;8.32;;
25657;SDS011;13517;59.320;18.042;2022-10-31T16:54:39;23.92;;;9.18;;
25657;SDS011;13517;59.320;18.042;2022-10-31T16:57:05;21.52;;;8.60;;
25657;SDS011;13517;59.320;18.042;2022-10-31T16:59:31;24.13;;;9.77;;
25657;SDS011;13517;59.320;18.042;2022-10-31T17:02:00;21.17;;;9.35;;
25657;SDS011;13517;59.320;18.042;2022-10-31T17:04:28;19.85;;;8.75;;
25657;SDS011;13517;59.320;18.042;2022-10-31T17:06:53;25.67;;;8.63;;
25657;SDS011;13517;59.320;18.042;2022-10-31T17:09:18;19.80;;;8.45;;